sensor_id;sensor_type;location;lat;lon;timestamp;pressure;altitude;pressure_sealevel;temperature;humidity
21545;BME280;10933;50.754;11.508;2023-05-20T00:00:58;100407.09;;;11.57;100.00
21545;BME280;10933;50.754;11.508;2023-05-20T00:03:24;100412.13;;;11.54;100.00
21545;BME280;10933;50.754;11.508;2023-05-20T00:05:50;100410.13;;;11.49;100.00
21545;BME280;10933;50.754;11.508;2023-05-20T00:08:18;100407.44;;;11.49;100.00
21545;BME280;10933;50.754;11.508;2023-05-20T00:10:44;100406.84;;;11.47;100.00
21545;BME280;10933;50.754;11.508;2023-05-20T00:13:10;100402.25;;;11.47;100.00
21545;BME280;10933;50.754;11.508;2023-05-20T00:15:36;100398.59;;;11.42;100.00
21545;BME280;10933;50.754;11.508;2023-05-20T00:18:03;100391.56;;;11.41;100.00
21545;BME280;10933;50.754;11.508;2023-05-20T00:20:29;100399.91;;;11.39;100.00
21545;BME280;10933;50.754;11.508;2023-05-20T00:22:56;100399.09;;;11.39;100.00
21545;BME280;10933;50.754;11.508;2023-05-20T00:25:22;100394.16;;;11.36;100.00
21545;BME280;10933;50.754;11.508;2023-05-20T00:27:48;100388.75;;;11.36;100.00
21545;BME280;10933;50.754;11.508;2023-05-20T00:30:14;100396.63;;;11.37;100.00
21545;BME280;10933;50.754;11.508;2023-05-20T00:32:40;100389.91;;;11.40;100.00
21545;BME280;10933;50.754;11.508;2023-05-20T00:35:07;100389.34;;;11.38;100.00
21545;BME280;10933;50.754;11.508;2023-05-20T00:37:34;100386.06;;;11.36;100.00
21545;BME280;10933;50.754;11.508;2023-05-20T00:40:00;100395.22;;;11.35;100.00
21545;BME280;10933;50.754;11.508;2023-05-20T00:42:27;100388.19;;;11.34;100.00
21545;BME280;10933;50.754;11.508;2023-05-20T00:44:54;100390.06;;;11.33;100.00
21545;BME280;10933;50.754;11.508;2023-05-20T00:47:25;100383.34;;;11.36;100.00
21545;BME280;10933;50.754;11.508;2023-05-20T00:49:52;100378.44;;;11.33;100.00
21545;BME280;10933;50.754;11.508;2023-05-20T00:52:19;100387.59;;;11.32;100.00
21545;BME280;10933;50.754;11.508;2023-05-20T00:54:46;100387.59;;;11.32;100.00
21545;BME280;10933;50.754;11.508;2023-05-20T00:57:12;100391.13;;;11.32;100.00
21545;BME280;10933;50.754;11.508;2023-05-20T00:59:39;100401.31;;;11.30;100.00
21545;BME280;10933;50.754;11.508;2023-05-20T01:02:06;100388.66;;;11.31;100.00
21545;BME280;10933;50.754;11.508;2023-05-20T01:04:33;100397.78;;;11.30;100.00
21545;BME280;10933;50.754;11.508;2023-05-20T01:07:03;100397.78;;;11.30;100.00
21545;BME280;10933;50.754;11.508;2023-05-20T01:09:30;100394.50;;;11.28;100.00
21545;BME280;10933;50.754;11.508;2023-05-20T01:12:16;100390.97;;;11.27;100.00
21545;BME280;10933;50.754;11.508;2023-05-20T01:15:07;100384.75;;;11.27;100.00
21545;BME280;10933;50.754;11.508;2023-05-20T01:17:41;100383.94;;;11.26;100.00
21545;BME280;10933;50.754;11.508;2023-05-20T01:20:10;100380.41;;;11.26;100.00
21545;BME280;10933;50.754;11.508;2023-05-20T01:22:54;100384.19;;;11.25;100.00
21545;BME280;10933;50.754;11.508;2023-05-20T01:25:20;100390.63;;;11.24;100.00
21545;BME280;10933;50.754;11.508;2023-05-20T01:27:47;100376.78;;;11.20;100.00
21545;BME280;10933;50.754;11.508;2023-05-20T01:30:15;100381.97;;;11.22;100.00
21545;BME280;10933;50.754;11.508;2023-05-20T01:32:51;100399.31;;;11.26;100.00
21545;BME280;10933;50.754;11.508;2023-05-20T01:35:20;100399.31;;;11.26;100.00
21545;BME280;10933;50.754;11.508;2023-05-20T01:37:47;100390.88;;;11.22;100.00
21545;BME280;10933;50.754;11.508;2023-05-20T01:40:15;100396.84;;;11.24;100.00
21545;BME280;10933;50.754;11.508;2023-05-20T01:42:43;100412.00;;;11.25;100.00
21545;BME280;10933;50.754;11.508;2023-05-20T01:45:11;100400.97;;;11.27;100.00
21545;BME280;10933;50.754;11.508;2023-05-20T01:47:37;100393.91;;;11.26;100.00
21545;BME280;10933;50.754;11.508;2023-05-20T01:50:03;100383.34;;;11.24;100.00
21545;BME280;10933;50.754;11.508;2023-05-20T01:52:30;100397.09;;;11.23;100.00
21545;BME280;10933;50.754;11.508;2023-05-20T01:54:56;100389.25;;;11.21;100.00
21545;BME280;10933;50.754;11.508;2023-05-20T01:57:23;100383.59;;;11.23;100.00
21545;BME280;10933;50.754;11.508;2023-05-20T01:59:49;100385.72;;;11.20;100.00
21545;BME280;10933;50.754;11.508;2023-05-20T02:02:15;100383.59;;;11.23;100.00
21545;BME280;10933;50.754;11.508;2023-05-20T02:04:46;100384.41;;;11.23;100.00
21545;BME280;10933;50.754;11.508;2023-05-20T02:07:14;100381.13;;;11.21;100.00
21545;BME280;10933;50.754;11.508;2023-05-20T02:09:40;100385.25;;;11.24;100.00
21545;BME280;10933;50.754;11.508;2023-05-20T02:12:07;100374.69;;;11.22;100.00
21545;BME280;10933;50.754;11.508;2023-05-20T02:14:34;100388.19;;;11.22;100.00
21545;BME280;10933;50.754;11.508;2023-05-20T02:17:00;100380.31;;;11.20;100.00
21545;BME280;10933;50.754;11.508;2023-05-20T02:19:26;100377.84;;;11.19;100.00
21545;BME280;10933;50.754;11.508;2023-05-20T02:21:52;100378.06;;;11.17;100.00
21545;BME280;10933;50.754;11.508;2023-05-20T02:24:18;100384.31;;;11.18;100.00
21545;BME280;10933;50.754;11.508;2023-05-20T02:26:46;100369.97;;;11.17;100.00
21545;BME280;10933;50.754;11.508;2023-05-20T02:29:14;100371.63;;;11.18;100.00
21545;BME280;10933;50.754;11.508;2023-05-20T02:31:40;100375.34;;;11.17;100.00
21545;BME280;10933;50.754;11.508;2023-05-20T02:34:06;100372.56;;;11.12;100.00
21545;BME280;10933;50.754;11.508;2023-05-20T02:36:33;100376.31;;;11.11;100.00
21545;BME280;10933;50.754;11.508;2023-05-20T02:38:59;100377.94;;;11.12;100.00
21545;BME280;10933;50.754;11.508;2023-05-20T02:41:26;100367.50;;;11.16;100.00
21545;BME280;10933;50.754;11.508;2023-05-20T02:43:52;100366.91;;;11.14;100.00
21545;BME280;10933;50.754;11.508;2023-05-20T02:46:19;100375.50;;;11.11;100.00
21545;BME280;10933;50.754;11.508;2023-05-20T02:48:45;100366.56;;;11.10;100.00
21545;BME280;10933;50.754;11.508;2023-05-20T02:51:11;100357.66;;;11.10;100.00
21545;BME280;10933;50.754;11.508;2023-05-20T02:53:37;100360.59;;;11.08;100.00
21545;BME280;10933;50.754;11.508;2023-05-20T02:56:04;100359.28;;;11.11;100.00
21545;BME280;10933;50.754;11.508;2023-05-20T02:58:30;100360.59;;;11.08;100.00
21545;BME280;10933;50.754;11.508;2023-05-20T03:00:58;100359.28;;;11.11;100.00
21545;BME280;10933;50.754;11.508;2023-05-20T03:03:25;100355.03;;;11.03;100.00
21545;BME280;10933;50.754;11.508;2023-05-20T03:05:54;100351.75;;;11.01;100.00
21545;BME280;10933;50.754;11.508;2023-05-20T03:08:22;100352.25;;;10.98;100.00
21545;BME280;10933;50.754;11.508;2023-05-20T03:10:48;100356.59;;;10.99;100.00
21545;BME280;10933;50.754;11.508;2023-05-20T03:13:15;100344.13;;;10.98;100.00
21545;BME280;10933;50.754;11.508;2023-05-20T03:15:41;100337.91;;;10.98;100.00
21545;BME280;10933;50.754;11.508;2023-05-20T03:18:10;100348.13;;;10.96;100.00
21545;BME280;10933;50.754;11.508;2023-05-20T03:20:37;100336.75;;;10.94;100.00
21545;BME280;10933;50.754;11.508;2023-05-20T03:23:05;100343.78;;;10.95;100.00
21545;BME280;10933;50.754;11.508;2023-05-20T03:25:32;100348.38;;;10.94;100.00
21545;BME280;10933;50.754;11.508;2023-05-20T03:27:59;100346.25;;;10.96;100.00
21545;BME280;10933;50.754;11.508;2023-05-20T03:30:25;100350.00;;;10.95;100.00
21545;BME280;10933;50.754;11.508;2023-05-20T03:32:53;100349.19;;;10.95;100.00
21545;BME280;10933;50.754;11.508;2023-05-20T03:35:19;100347.91;;;10.97;100.00
21545;BME280;10933;50.754;11.508;2023-05-20T03:37:45;100341.34;;;10.93;100.00
21545;BME280;10933;50.754;11.508;2023-05-20T03:40:11;100345.06;;;10.92;100.00
21545;BME280;10933;50.754;11.508;2023-05-20T03:42:38;100335.56;;;10.89;100.00
21545;BME280;10933;50.754;11.508;2023-05-20T03:45:04;100344.03;;;10.93;100.00
21545;BME280;10933;50.754;11.508;2023-05-20T03:47:31;100341.34;;;10.93;100.00
21545;BME280;10933;50.754;11.508;2023-05-20T03:49:57;100341.34;;;10.93;100.00
21545;BME280;10933;50.754;11.508;2023-05-20T03:52:24;100346.25;;;10.96;100.00
21545;BME280;10933;50.754;11.508;2023-05-20T03:54:50;100351.91;;;10.95;100.00
21545;BME280;10933;50.754;11.508;2023-05-20T03:57:17;100356.47;;;10.94;100.00
21545;BME280;10933;50.754;11.508;2023-05-20T03:59:44;100351.91;;;10.95;100.00
21545;BME280;10933;50.754;11.508;2023-05-20T04:02:10;100350.00;;;10.95;100.00
21545;BME280;10933;50.754;11.508;2023-05-20T04:04:37;100357.06;;;10.96;100.00
21545;BME280;10933;50.754;11.508;2023-05-20T04:07:03;100364.69;;;10.99;100.00
21545;BME280;10933;50.754;11.508;2023-05-20T04:09:32;100368.53;;;11.03;100.00
21545;BME280;10933;50.754;11.508;2023-05-20T04:11:58;100375.00;;;11.02;100.00
21545;BME280;10933;50.754;11.508;2023-05-20T04:14:25;100389.31;;;11.03;100.00
21545;BME280;10933;50.754;11.508;2023-05-20T04:16:51;100383.09;;;11.02;100.00
21545;BME280;10933;50.754;11.508;2023-05-20T04:19:17;100384.75;;;11.03;100.00
21545;BME280;10933;50.754;11.508;2023-05-20T04:21:48;100375.16;;;11.07;100.00
21545;BME280;10933;50.754;11.508;2023-05-20T04:24:15;100384.31;;;11.06;100.00
21545;BME280;10933;50.754;11.508;2023-05-20T04:26:41;100377.84;;;11.07;100.00
21545;BME280;10933;50.754;11.508;2023-05-20T04:29:08;100380.53;;;11.07;100.00
21545;BME280;10933;50.754;11.508;2023-05-20T04:31:34;100387.59;;;11.08;100.00
21545;BME280;10933;50.754;11.508;2023-05-20T04:34:00;100385.94;;;11.07;100.00
21545;BME280;10933;50.754;11.508;2023-05-20T04:36:27;100384.06;;;11.08;100.00
21545;BME280;10933;50.754;11.508;2023-05-20T04:38:54;100384.88;;;11.08;100.00
21545;BME280;10933;50.754;11.508;2023-05-20T04:41:20;100397.56;;;11.08;100.00
21545;BME280;10933;50.754;11.508;2023-05-20T04:43:47;100391.59;;;11.06;100.00
21545;BME280;10933;50.754;11.508;2023-05-20T04:46:14;100390.88;;;11.10;100.00
21545;BME280;10933;50.754;11.508;2023-05-20T04:48:41;100385.00;;;11.13;100.00
21545;BME280;10933;50.754;11.508;2023-05-20T04:51:09;100382.78;;;11.10;100.00
21545;BME280;10933;50.754;11.508;2023-05-20T04:53:35;100383.94;;;11.14;100.00
21545;BME280;10933;50.754;11.508;2023-05-20T04:56:01;100379.13;;;11.16;100.00
21545;BME280;10933;50.754;11.508;2023-05-20T04:58:28;100385.72;;;11.20;100.00
21545;BME280;10933;50.754;11.508;2023-05-20T05:00:55;100392.28;;;11.25;100.00
21545;BME280;10933;50.754;11.508;2023-05-20T05:03:21;100374.44;;;11.24;100.00
21545;BME280;10933;50.754;11.508;2023-05-20T05:05:47;100378.53;;;11.26;100.00
21545;BME280;10933;50.754;11.508;2023-05-20T05:08:14;100377.38;;;11.22;100.00
21545;BME280;10933;50.754;11.508;2023-05-20T05:10:40;100371.63;;;11.18;100.00
21545;BME280;10933;50.754;11.508;2023-05-20T05:13:06;100366.81;;;11.20;100.00
21545;BME280;10933;50.754;11.508;2023-05-20T05:15:32;100370.69;;;11.25;100.00
21545;BME280;10933;50.754;11.508;2023-05-20T05:17:58;100377.97;;;11.24;100.00
21545;BME280;10933;50.754;11.508;2023-05-20T05:20:24;100372.78;;;11.23;100.00
21545;BME280;10933;50.754;11.508;2023-05-20T05:22:51;100373.84;;;11.22;100.00
21545;BME280;10933;50.754;11.508;2023-05-20T05:25:17;100367.41;;;11.23;100.00
21545;BME280;10933;50.754;11.508;2023-05-20T05:27:43;100375.50;;;11.23;100.00
21545;BME280;10933;50.754;11.508;2023-05-20T05:30:15;100365.84;;;11.27;100.00
21545;BME280;10933;50.754;11.508;2023-05-20T05:32:42;100373.97;;;11.27;100.00
21545;BME280;10933;50.754;11.508;2023-05-20T05:35:08;100375.03;;;11.26;100.00
21545;BME280;10933;50.754;11.508;2023-05-20T05:37:35;100384.75;;;11.27;100.00
21545;BME280;10933;50.754;11.508;2023-05-20T05:40:01;100371.03;;;11.28;100.00
21545;BME280;10933;50.754;11.508;2023-05-20T05:42:28;100375.16;;;11.31;100.00
21545;BME280;10933;50.754;11.508;2023-05-20T05:44:54;100378.88;;;11.30;100.00
21545;BME280;10933;50.754;11.508;2023-05-20T05:47:21;100376.41;;;11.28;100.00
21545;BME280;10933;50.754;11.508;2023-05-20T05:49:47;100374.31;;;11.30;100.00
21545;BME280;10933;50.754;11.508;2023-05-20T05:52:13;100363.97;;;11.27;100.00
21545;BME280;10933;50.754;11.508;2023-05-20T05:54:39;100363.72;;;11.29;100.00
21545;BME280;10933;50.754;11.508;2023-05-20T05:57:05;100362.91;;;11.28;100.00
21545;BME280;10933;50.754;11.508;2023-05-20T05:59:32;100355.63;;;11.29;100.00
21545;BME280;10933;50.754;11.508;2023-05-20T06:01:58;100352.25;;;11.33;100.00
21545;BME280;10933;50.754;11.508;2023-05-20T06:04:25;100363.03;;;11.33;100.00
21545;BME280;10933;50.754;11.508;2023-05-20T06:06:51;100365.03;;;11.38;100.00
21545;BME280;10933;50.754;11.508;2023-05-20T06:09:17;100369.72;;;11.42;100.00
21545;BME280;10933;50.754;11.508;2023-05-20T06:11:43;100371.34;;;11.55;100.00
21545;BME280;10933;50.754;11.508;2023-05-20T06:14:09;100369.81;;;11.59;100.00
21545;BME280;10933;50.754;11.508;2023-05-20T06:16:35;100373.09;;;11.61;100.00
21545;BME280;10933;50.754;11.508;2023-05-20T06:19:01;100378.28;;;11.63;100.00
21545;BME280;10933;50.754;11.508;2023-05-20T06:21:30;100374.50;;;11.64;100.00
21545;BME280;10933;50.754;11.508;2023-05-20T06:23:57;100373.69;;;11.63;100.00
21545;BME280;10933;50.754;11.508;2023-05-20T06:26:23;100373.44;;;11.65;100.00
21545;BME280;10933;50.754;11.508;2023-05-20T06:28:49;100376.63;;;11.73;100.00
21545;BME280;10933;50.754;11.508;2023-05-20T06:31:16;100369.22;;;11.81;100.00
21545;BME280;10933;50.754;11.508;2023-05-20T06:33:42;100369.91;;;11.88;100.00
21545;BME280;10933;50.754;11.508;2023-05-20T06:36:08;100363.41;;;12.00;100.00
21545;BME280;10933;50.754;11.508;2023-05-20T06:38:34;100362.09;;;12.03;100.00
21545;BME280;10933;50.754;11.508;2023-05-20T06:41:00;100363.91;;;11.97;100.00
21545;BME280;10933;50.754;11.508;2023-05-20T06:43:27;100357.50;;;12.03;100.00
21545;BME280;10933;50.754;11.508;2023-05-20T06:45:54;100351.19;;;11.98;100.00
21545;BME280;10933;50.754;11.508;2023-05-20T06:48:20;100343.56;;;11.95;100.00
21545;BME280;10933;50.754;11.508;2023-05-20T06:50:46;100342.59;;;12.01;100.00
21545;BME280;10933;50.754;11.508;2023-05-20T06:53:12;100346.69;;;12.03;100.00
21545;BME280;10933;50.754;11.508;2023-05-20T06:55:39;100334.22;;;12.02;100.00
21545;BME280;10933;50.754;11.508;2023-05-20T06:58:05;100324.25;;;12.03;100.00
21545;BME280;10933;50.754;11.508;2023-05-20T07:00:31;100326.34;;;12.29;100.00
21545;BME280;10933;50.754;11.508;2023-05-20T07:02:57;100313.94;;;12.62;100.00
21545;BME280;10933;50.754;11.508;2023-05-20T07:05:23;100300.91;;;12.59;100.00
21545;BME280;10933;50.754;11.508;2023-05-20T07:07:50;100297.59;;;12.90;100.00
21545;BME280;10933;50.754;11.508;2023-05-20T07:10:16;100293.97;;;13.02;100.00
21545;BME280;10933;50.754;11.508;2023-05-20T07:12:43;100283.06;;;12.96;100.00
21545;BME280;10933;50.754;11.508;2023-05-20T07:15:09;100261.00;;;12.88;100.00
21545;BME280;10933;50.754;11.508;2023-05-20T07:17:36;100282.81;;;12.81;100.00
21545;BME280;10933;50.754;11.508;2023-05-20T07:20:02;100273.97;;;12.69;100.00
21545;BME280;10933;50.754;11.508;2023-05-20T07:22:29;100263.56;;;12.44;100.00
21545;BME280;10933;50.754;11.508;2023-05-20T07:24:58;100270.03;;;12.43;100.00
21545;BME280;10933;50.754;11.508;2023-05-20T07:27:26;100258.66;;;12.41;100.00
21545;BME280;10933;50.754;11.508;2023-05-20T07:29:52;100254.13;;;12.30;100.00
21545;BME280;10933;50.754;11.508;2023-05-20T07:32:18;100252.25;;;12.30;100.00
21545;BME280;10933;50.754;11.508;2023-05-20T07:34:44;100250.72;;;12.34;100.00
21545;BME280;10933;50.754;11.508;2023-05-20T07:37:10;100254.06;;;12.42;100.00
21545;BME280;10933;50.754;11.508;2023-05-20T07:39:38;100257.25;;;12.55;100.00
21545;BME280;10933;50.754;11.508;2023-05-20T07:42:04;100254.81;;;12.71;100.00
21545;BME280;10933;50.754;11.508;2023-05-20T07:44:30;100249.50;;;12.98;100.00
21545;BME280;10933;50.754;11.508;2023-05-20T07:46:57;100243.72;;;13.11;100.00
21545;BME280;10933;50.754;11.508;2023-05-20T07:49:23;100223.34;;;13.25;100.00
21545;BME280;10933;50.754;11.508;2023-05-20T07:51:49;100220.81;;;13.40;100.00
21545;BME280;10933;50.754;11.508;2023-05-20T07:54:16;100220.88;;;13.45;100.00
21545;BME280;10933;50.754;11.508;2023-05-20T07:56:42;100205.41;;;13.46;100.00
21545;BME280;10933;50.754;11.508;2023-05-20T07:59:08;100218.97;;;13.46;100.00
21545;BME280;10933;50.754;11.508;2023-05-20T08:01:35;100208.66;;;13.43;100.00
21545;BME280;10933;50.754;11.508;2023-05-20T08:04:03;100206.19;;;13.41;100.00
21545;BME280;10933;50.754;11.508;2023-05-20T08:06:30;100194.91;;;13.49;100.00
21545;BME280;10933;50.754;11.508;2023-05-20T08:08:57;100189.38;;;13.39;100.00
21545;BME280;10933;50.754;11.508;2023-05-20T08:11:23;100193.19;;;13.43;100.00
21545;BME280;10933;50.754;11.508;2023-05-20T08:13:49;100187.78;;;13.43;100.00
21545;BME280;10933;50.754;11.508;2023-05-20T08:16:16;100184.94;;;13.55;100.00
21545;BME280;10933;50.754;11.508;2023-05-20T08:18:42;100181.00;;;13.68;100.00
21545;BME280;10933;50.754;11.508;2023-05-20T08:21:08;100166.56;;;13.89;100.00
21545;BME280;10933;50.754;11.508;2023-05-20T08:23:35;100166.59;;;13.94;100.00
21545;BME280;10933;50.754;11.508;2023-05-20T08:26:01;100160.47;;;14.09;100.00
21545;BME280;10933;50.754;11.508;2023-05-20T08:28:29;100149.88;;;14.02;100.00
21545;BME280;10933;50.754;11.508;2023-05-20T08:30:56;100149.50;;;13.94;100.00
21545;BME280;10933;50.754;11.508;2023-05-20T08:33:23;100148.97;;;13.92;100.00
21545;BME280;10933;50.754;11.508;2023-05-20T08:35:49;100145.84;;;13.78;100.00
21545;BME280;10933;50.754;11.508;2023-05-20T08:38:15;100141.53;;;13.82;100.00
21545;BME280;10933;50.754;11.508;2023-05-20T08:40:45;100142.75;;;13.96;100.00
21545;BME280;10933;50.754;11.508;2023-05-20T08:43:11;100135.22;;;14.03;100.00
21545;BME280;10933;50.754;11.508;2023-05-20T08:45:38;100137.31;;;13.96;100.00
21545;BME280;10933;50.754;11.508;2023-05-20T08:48:04;100128.16;;;14.02;100.00
21545;BME280;10933;50.754;11.508;2023-05-20T08:50:31;100133.97;;;14.16;100.00
21545;BME280;10933;50.754;11.508;2023-05-20T08:52:58;100115.34;;;14.30;100.00
21545;BME280;10933;50.754;11.508;2023-05-20T08:57:53;100094.50;;;14.93;100.00
21545;BME280;10933;50.754;11.508;2023-05-20T09:00:21;100083.06;;;14.81;100.00
21545;BME280;10933;50.754;11.508;2023-05-20T09:02:52;100077.84;;;14.69;100.00
21545;BME280;10933;50.754;11.508;2023-05-20T09:05:18;100069.72;;;14.74;100.00
21545;BME280;10933;50.754;11.508;2023-05-20T09:07:44;100058.59;;;14.86;100.00
21545;BME280;10933;50.754;11.508;2023-05-20T09:10:11;100048.91;;;15.10;100.00
21545;BME280;10933;50.754;11.508;2023-05-20T09:12:37;100034.13;;;14.65;100.00
21545;BME280;10933;50.754;11.508;2023-05-20T09:15:04;100038.69;;;14.50;100.00
21545;BME280;10933;50.754;11.508;2023-05-20T09:17:36;100032.13;;;14.46;100.00
21545;BME280;10933;50.754;11.508;2023-05-20T09:20:06;100043.78;;;14.46;100.00
21545;BME280;10933;50.754;11.508;2023-05-20T09:22:34;100040.63;;;14.64;100.00
21545;BME280;10933;50.754;11.508;2023-05-20T09:25:00;100025.44;;;14.68;100.00
21545;BME280;10933;50.754;11.508;2023-05-20T09:27:27;100018.44;;;14.98;100.00
21545;BME280;10933;50.754;11.508;2023-05-20T09:29:53;100019.59;;;15.17;100.00
21545;BME280;10933;50.754;11.508;2023-05-20T09:32:20;100001.13;;;15.45;100.00
21545;BME280;10933;50.754;11.508;2023-05-20T09:34:53;99977.72;;;15.74;100.00
21545;BME280;10933;50.754;11.508;2023-05-20T09:37:21;99964.94;;;15.90;100.00
21545;BME280;10933;50.754;11.508;2023-05-20T09:40:03;99945.09;;;15.74;100.00
21545;BME280;10933;50.754;11.508;2023-05-20T09:42:53;99929.88;;;15.53;100.00
21545;BME280;10933;50.754;11.508;2023-05-20T09:45:21;99923.09;;;15.60;100.00
21545;BME280;10933;50.754;11.508;2023-05-20T09:47:50;99907.31;;;15.68;100.00
21545;BME280;10933;50.754;11.508;2023-05-20T09:50:18;99916.28;;;15.58;100.00
21545;BME280;10933;50.754;11.508;2023-05-20T09:52:47;99903.78;;;15.52;100.00
21545;BME280;10933;50.754;11.508;2023-05-20T09:55:15;99900.94;;;16.03;100.00
21545;BME280;10933;50.754;11.508;2023-05-20T09:57:42;99874.13;;;16.30;100.00
21545;BME280;10933;50.754;11.508;2023-05-20T10:00:09;99866.13;;;16.88;100.00
21545;BME280;10933;50.754;11.508;2023-05-20T10:02:40;99819.47;;;18.19;100.00
21545;BME280;10933;50.754;11.508;2023-05-20T10:05:33;99765.94;;;18.00;100.00
21545;BME280;10933;50.754;11.508;2023-05-20T10:14:08;99710.56;;;17.80;100.00
21545;BME280;10933;50.754;11.508;2023-05-20T10:19:30;99686.81;;;17.38;100.00
21545;BME280;10933;50.754;11.508;2023-05-20T10:22:04;99677.78;;;17.61;100.00
21545;BME280;10933;50.754;11.508;2023-05-20T10:24:39;99659.03;;;17.79;100.00
21545;BME280;10933;50.754;11.508;2023-05-20T10:27:11;99666.22;;;18.07;100.00
21545;BME280;10933;50.754;11.508;2023-05-20T10:29:43;99653.16;;;17.67;100.00
21545;BME280;10933;50.754;11.508;2023-05-20T10:32:10;99656.50;;;17.21;100.00
21545;BME280;10933;50.754;11.508;2023-05-20T10:34:47;99658.50;;;17.15;100.00
21545;BME280;10933;50.754;11.508;2023-05-20T10:37:27;99660.13;;;17.35;100.00
21545;BME280;10933;50.754;11.508;2023-05-20T10:40:12;99662.44;;;16.80;100.00
21545;BME280;10933;50.754;11.508;2023-05-20T10:42:40;99668.53;;;16.67;100.00
21545;BME280;10933;50.754;11.508;2023-05-20T10:45:07;99682.19;;;16.62;100.00
21545;BME280;10933;50.754;11.508;2023-05-20T10:47:34;99680.13;;;16.54;100.00
21545;BME280;10933;50.754;11.508;2023-05-20T10:50:01;99689.91;;;16.55;100.00
21545;BME280;10933;50.754;11.508;2023-05-20T10:52:33;99683.75;;;16.73;100.00
21545;BME280;10933;50.754;11.508;2023-05-20T10:55:03;99688.28;;;16.83;100.00
21545;BME280;10933;50.754;11.508;2023-05-20T10:57:30;99688.50;;;16.86;100.00
21545;BME280;10933;50.754;11.508;2023-05-20T10:59:57;99690.88;;;16.64;100.00
21545;BME280;10933;50.754;11.508;2023-05-20T11:02:25;99687.56;;;16.72;100.00
21545;BME280;10933;50.754;11.508;2023-05-20T11:04:56;99688.16;;;16.69;100.00
21545;BME280;10933;50.754;11.508;2023-05-20T11:07:30;99684.88;;;16.67;100.00
21545;BME280;10933;50.754;11.508;2023-05-20T11:09:57;99689.50;;;16.71;100.00
21545;BME280;10933;50.754;11.508;2023-05-20T11:12:25;99683.47;;;16.74;100.00
21545;BME280;10933;50.754;11.508;2023-05-20T11:14:52;99677.41;;;17.06;100.00
21545;BME280;10933;50.754;11.508;2023-05-20T11:17:19;99653.56;;;17.79;100.00
21545;BME280;10933;50.754;11.508;2023-05-20T11:19:49;99630.13;;;18.10;100.00
21545;BME280;10933;50.754;11.508;2023-05-20T11:22:15;99613.50;;;17.93;100.00
21545;BME280;10933;50.754;11.508;2023-05-20T11:24:41;99599.56;;;17.57;100.00
21545;BME280;10933;50.754;11.508;2023-05-20T11:27:08;99604.16;;;18.27;100.00
21545;BME280;10933;50.754;11.508;2023-05-20T11:29:34;99596.44;;;19.16;100.00
21545;BME280;10933;50.754;11.508;2023-05-20T11:32:00;99586.84;;;19.55;100.00
21545;BME280;10933;50.754;11.508;2023-05-20T11:34:33;99583.50;;;19.08;100.00
21545;BME280;10933;50.754;11.508;2023-05-20T11:37:00;99583.09;;;19.01;100.00
21545;BME280;10933;50.754;11.508;2023-05-20T11:39:29;99574.22;;;18.81;100.00
21545;BME280;10933;50.754;11.508;2023-05-20T11:41:56;99562.97;;;18.97;100.00
21545;BME280;10933;50.754;11.508;2023-05-20T11:44:23;99567.63;;;19.91;100.00
21545;BME280;10933;50.754;11.508;2023-05-20T11:46:49;99576.38;;;20.24;100.00
21545;BME280;10933;50.754;11.508;2023-05-20T11:49:16;99572.81;;;19.70;100.00
21545;BME280;10933;50.754;11.508;2023-05-20T11:51:43;99575.31;;;19.30;100.00
21545;BME280;10933;50.754;11.508;2023-05-20T11:54:09;99554.13;;;19.00;100.00
21545;BME280;10933;50.754;11.508;2023-05-20T11:56:36;99564.84;;;19.10;100.00
21545;BME280;10933;50.754;11.508;2023-05-20T11:59:04;99555.13;;;19.04;100.00
21545;BME280;10933;50.754;11.508;2023-05-20T12:01:33;99547.59;;;19.23;100.00
21545;BME280;10933;50.754;11.508;2023-05-20T12:04:06;99551.16;;;19.24;100.00
21545;BME280;10933;50.754;11.508;2023-05-20T12:06:32;99549.91;;;18.94;100.00
21545;BME280;10933;50.754;11.508;2023-05-20T12:09:02;99542.63;;;18.75;100.00
21545;BME280;10933;50.754;11.508;2023-05-20T12:11:36;99538.16;;;18.52;100.00
21545;BME280;10933;50.754;11.508;2023-05-20T12:14:05;99542.16;;;18.13;100.00
21545;BME280;10933;50.754;11.508;2023-05-20T12:16:33;99537.84;;;17.80;100.00
21545;BME280;10933;50.754;11.508;2023-05-20T12:19:00;99524.28;;;17.75;100.00
21545;BME280;10933;50.754;11.508;2023-05-20T12:21:28;99528.72;;;17.71;100.00
21545;BME280;10933;50.754;11.508;2023-05-20T12:23:55;99529.53;;;17.71;100.00
21545;BME280;10933;50.754;11.508;2023-05-20T12:26:24;99534.88;;;17.95;100.00
21545;BME280;10933;50.754;11.508;2023-05-20T12:28:50;99538.16;;;17.59;100.00
21545;BME280;10933;50.754;11.508;2023-05-20T12:31:17;99538.75;;;17.56;100.00
21545;BME280;10933;50.754;11.508;2023-05-20T12:33:43;99544.84;;;17.67;100.00
21545;BME280;10933;50.754;11.508;2023-05-20T12:36:09;99540.22;;;17.68;100.00
21545;BME280;10933;50.754;11.508;2023-05-20T12:38:35;99542.09;;;17.86;100.00
21545;BME280;10933;50.754;11.508;2023-05-20T12:41:02;99544.16;;;17.94;100.00
21545;BME280;10933;50.754;11.508;2023-05-20T12:43:28;99534.66;;;17.91;100.00
21545;BME280;10933;50.754;11.508;2023-05-20T12:45:54;99535.25;;;18.02;100.00